sensor_id;sensor_type;location;lat;lon;timestamp;temperature;humidity
68865;DHT22;55898;52.196;4.420;2022-07-22T00:02:23;19.08;68.60
68865;DHT22;55898;52.196;4.420;2022-07-22T00:04:49;19.09;67.77
68865;DHT22;55898;52.196;4.420;2022-07-22T00:07:14;19.09;68.80
68865;DHT22;55898;52.196;4.420;2022-07-22T00:09:40;19.15;68.56
68865;DHT22;55898;52.196;4.420;2022-07-22T00:12:06;19.12;69.18
68865;DHT22;55898;52.196;4.420;2022-07-22T00:14:32;19.09;67.50
68865;DHT22;55898;52.196;4.420;2022-07-22T00:16:58;19.06;67.12
68865;DHT22;55898;52.196;4.420;2022-07-22T00:19:23;19.12;68.57
68865;DHT22;55898;52.196;4.420;2022-07-22T00:21:50;19.04;66.24
68865;DHT22;55898;52.196;4.420;2022-07-22T00:24:16;19.05;65.98
68865;DHT22;55898;52.196;4.420;2022-07-22T00:26:42;19.04;68.26
68865;DHT22;55898;52.196;4.420;2022-07-22T00:29:07;19.05;67.07
68865;DHT22;55898;52.196;4.420;2022-07-22T00:31:33;19.01;65.69
68865;DHT22;55898;52.196;4.420;2022-07-22T00:34:00;19.05;66.61
68865;DHT22;55898;52.196;4.420;2022-07-22T00:36:30;19.02;66.18
68865;DHT22;55898;52.196;4.420;2022-07-22T00:38:56;19.06;66.57
68865;DHT22;55898;52.196;4.420;2022-07-22T00:41:22;19.05;67.37
68865;DHT22;55898;52.196;4.420;2022-07-22T00:43:58;19.05;66.79
68865;DHT22;55898;52.196;4.420;2022-07-22T00:46:24;19.05;67.91
68865;DHT22;55898;52.196;4.420;2022-07-22T00:48:50;19.05;67.30
68865;DHT22;55898;52.196;4.420;2022-07-22T00:51:17;19.06;68.15
68865;DHT22;55898;52.196;4.420;2022-07-22T00:53:43;19.04;67.32
68865;DHT22;55898;52.196;4.420;2022-07-22T00:56:09;19.01;67.05
68865;DHT22;55898;52.196;4.420;2022-07-22T00:58:35;18.98;67.27
68865;DHT22;55898;52.196;4.420;2022-07-22T01:01:01;18.98;66.76
68865;DHT22;55898;52.196;4.420;2022-07-22T01:03:26;18.94;65.84
68865;DHT22;55898;52.196;4.420;2022-07-22T01:05:52;18.98;66.32
68865;DHT22;55898;52.196;4.420;2022-07-22T01:08:18;18.99;67.12
68865;DHT22;55898;52.196;4.420;2022-07-22T01:10:43;18.98;66.51
68865;DHT22;55898;52.196;4.420;2022-07-22T01:13:09;18.99;67.72
68865;DHT22;55898;52.196;4.420;2022-07-22T01:15:34;19.02;67.51
68865;DHT22;55898;52.196;4.420;2022-07-22T01:18:00;19.04;66.94
68865;DHT22;55898;52.196;4.420;2022-07-22T01:20:26;18.98;67.72
68865;DHT22;55898;52.196;4.420;2022-07-22T01:22:52;18.98;67.05
68865;DHT22;55898;52.196;4.420;2022-07-22T01:25:18;18.99;68.14
68865;DHT22;55898;52.196;4.420;2022-07-22T01:27:43;18.99;67.16
68865;DHT22;55898;52.196;4.420;2022-07-22T01:30:10;18.98;67.72
68865;DHT22;55898;52.196;4.420;2022-07-22T01:32:35;18.96;68.29
68865;DHT22;55898;52.196;4.420;2022-07-22T01:35:01;18.98;67.96
68865;DHT22;55898;52.196;4.420;2022-07-22T01:37:26;19.01;67.41
68865;DHT22;55898;52.196;4.420;2022-07-22T01:39:52;18.98;68.29
68865;DHT22;55898;52.196;4.420;2022-07-22T01:42:17;18.98;67.63
68865;DHT22;55898;52.196;4.420;2022-07-22T01:44:43;19.01;67.64
68865;DHT22;55898;52.196;4.420;2022-07-22T01:47:09;19.01;67.95
68865;DHT22;55898;52.196;4.420;2022-07-22T01:49:35;18.95;68.24
68865;DHT22;55898;52.196;4.420;2022-07-22T01:52:02;18.98;69.12
68865;DHT22;55898;52.196;4.420;2022-07-22T01:54:28;18.98;68.87
68865;DHT22;55898;52.196;4.420;2022-07-22T01:56:53;18.95;68.54
68865;DHT22;55898;52.196;4.420;2022-07-22T01:59:19;18.99;69.02
68865;DHT22;55898;52.196;4.420;2022-07-22T02:01:44;18.99;68.98
68865;DHT22;55898;52.196;4.420;2022-07-22T02:04:10;19.02;69.27
68865;DHT22;55898;52.196;4.420;2022-07-22T02:06:35;19.04;68.94
68865;DHT22;55898;52.196;4.420;2022-07-22T02:09:02;19.02;69.37
68865;DHT22;55898;52.196;4.420;2022-07-22T02:11:27;18.98;69.18
68865;DHT22;55898;52.196;4.420;2022-07-22T02:13:53;18.98;69.75
68865;DHT22;55898;52.196;4.420;2022-07-22T02:16:18;18.99;69.61
68865;DHT22;55898;52.196;4.420;2022-07-22T02:18:44;18.98;70.15
68865;DHT22;55898;52.196;4.420;2022-07-22T02:21:09;18.94;68.02
68865;DHT22;55898;52.196;4.420;2022-07-22T02:23:35;18.91;67.96
68865;DHT22;55898;52.196;4.420;2022-07-22T02:26:01;18.91;68.87
68865;DHT22;55898;52.196;4.420;2022-07-22T02:28:26;18.91;68.82
68865;DHT22;55898;52.196;4.420;2022-07-22T02:30:52;18.95;68.95
68865;DHT22;55898;52.196;4.420;2022-07-22T02:33:17;18.95;67.72
68865;DHT22;55898;52.196;4.420;2022-07-22T02:35:43;18.94;67.09
68865;DHT22;55898;52.196;4.420;2022-07-22T02:38:08;18.94;68.10
68865;DHT22;55898;52.196;4.420;2022-07-22T02:40:34;18.94;67.97
68865;DHT22;55898;52.196;4.420;2022-07-22T02:42:59;18.91;67.70
68865;DHT22;55898;52.196;4.420;2022-07-22T02:45:25;18.94;67.67
68865;DHT22;55898;52.196;4.420;2022-07-22T02:47:53;18.92;67.80
68865;DHT22;55898;52.196;4.420;2022-07-22T02:50:20;18.92;67.13
68865;DHT22;55898;52.196;4.420;2022-07-22T02:52:46;18.92;67.47
68865;DHT22;55898;52.196;4.420;2022-07-22T02:55:11;18.94;67.89
68865;DHT22;55898;52.196;4.420;2022-07-22T02:57:37;18.95;68.39
68865;DHT22;55898;52.196;4.420;2022-07-22T03:00:05;18.94;68.35
68865;DHT22;55898;52.196;4.420;2022-07-22T03:02:30;18.95;67.97
68865;DHT22;55898;52.196;4.420;2022-07-22T03:04:56;18.96;68.00
68865;DHT22;55898;52.196;4.420;2022-07-22T03:07:22;18.95;67.46
68865;DHT22;55898;52.196;4.420;2022-07-22T03:09:47;18.94;68.00
68865;DHT22;55898;52.196;4.420;2022-07-22T03:12:13;18.96;68.81
68865;DHT22;55898;52.196;4.420;2022-07-22T03:14:38;18.94;67.62
68865;DHT22;55898;52.196;4.420;2022-07-22T03:17:04;18.92;67.16
68865;DHT22;55898;52.196;4.420;2022-07-22T03:19:29;18.94;66.89
68865;DHT22;55898;52.196;4.420;2022-07-22T03:21:55;18.89;65.37
68865;DHT22;55898;52.196;4.420;2022-07-22T03:24:20;18.89;66.21
68865;DHT22;55898;52.196;4.420;2022-07-22T03:26:46;18.91;66.14
68865;DHT22;55898;52.196;4.420;2022-07-22T03:29:11;18.88;66.73
68865;DHT22;55898;52.196;4.420;2022-07-22T03:31:36;18.91;66.09
68865;DHT22;55898;52.196;4.420;2022-07-22T03:34:02;18.84;65.09
68865;DHT22;55898;52.196;4.420;2022-07-22T03:36:28;18.79;65.59
68865;DHT22;55898;52.196;4.420;2022-07-22T03:38:55;18.75;66.21
68865;DHT22;55898;52.196;4.420;2022-07-22T03:41:21;18.74;65.75
68865;DHT22;55898;52.196;4.420;2022-07-22T03:43:46;18.75;66.87
68865;DHT22;55898;52.196;4.420;2022-07-22T03:46:12;18.74;65.50
68865;DHT22;55898;52.196;4.420;2022-07-22T03:48:38;18.72;65.68
68865;DHT22;55898;52.196;4.420;2022-07-22T03:51:03;18.75;66.56
68865;DHT22;55898;52.196;4.420;2022-07-22T03:53:29;18.77;64.83
68865;DHT22;55898;52.196;4.420;2022-07-22T03:55:54;18.74;64.79
68865;DHT22;55898;52.196;4.420;2022-07-22T03:58:20;18.78;66.33
68865;DHT22;55898;52.196;4.420;2022-07-22T04:00:46;18.78;66.50
68865;DHT22;55898;52.196;4.420;2022-07-22T04:03:11;18.77;66.70
68865;DHT22;55898;52.196;4.420;2022-07-22T04:05:37;18.83;65.56
68865;DHT22;55898;52.196;4.420;2022-07-22T04:08:02;18.84;65.91
68865;DHT22;55898;52.196;4.420;2022-07-22T04:10:28;18.84;66.10
68865;DHT22;55898;52.196;4.420;2022-07-22T04:12:53;18.85;65.80
68865;DHT22;55898;52.196;4.420;2022-07-22T04:15:19;18.84;65.74
68865;DHT22;55898;52.196;4.420;2022-07-22T04:17:45;18.84;65.49
68865;DHT22;55898;52.196;4.420;2022-07-22T04:20:10;18.84;66.38
68865;DHT22;55898;52.196;4.420;2022-07-22T04:22:36;18.85;66.46
68865;DHT22;55898;52.196;4.420;2022-07-22T04:25:01;18.88;66.05
68865;DHT22;55898;52.196;4.420;2022-07-22T04:27:27;18.88;67.23
68865;DHT22;55898;52.196;4.420;2022-07-22T04:29:52;18.87;66.65
68865;DHT22;55898;52.196;4.420;2022-07-22T04:32:18;18.87;67.72
68865;DHT22;55898;52.196;4.420;2022-07-22T04:34:43;18.87;67.70
68865;DHT22;55898;52.196;4.420;2022-07-22T04:37:09;18.87;67.62
68865;DHT22;55898;52.196;4.420;2022-07-22T04:39:34;18.87;67.75
68865;DHT22;55898;52.196;4.420;2022-07-22T04:42:00;18.94;68.38
68865;DHT22;55898;52.196;4.420;2022-07-22T04:44:25;18.91;68.20
68865;DHT22;55898;52.196;4.420;2022-07-22T04:46:51;18.92;66.91
68865;DHT22;55898;52.196;4.420;2022-07-22T04:49:16;18.89;66.71
68865;DHT22;55898;52.196;4.420;2022-07-22T04:51:42;18.95;66.31
68865;DHT22;55898;52.196;4.420;2022-07-22T04:54:07;18.98;66.53
68865;DHT22;55898;52.196;4.420;2022-07-22T04:56:33;18.98;66.47
68865;DHT22;55898;52.196;4.420;2022-07-22T04:58:58;18.99;67.05
68865;DHT22;55898;52.196;4.420;2022-07-22T05:01:24;19.02;68.09
68865;DHT22;55898;52.196;4.420;2022-07-22T05:03:49;19.04;67.52
68865;DHT22;55898;52.196;4.420;2022-07-22T05:06:17;19.04;68.28
68865;DHT22;55898;52.196;4.420;2022-07-22T05:08:42;19.04;67.53
68865;DHT22;55898;52.196;4.420;2022-07-22T05:11:08;19.06;68.04
68865;DHT22;55898;52.196;4.420;2022-07-22T05:13:34;19.08;69.07
68865;DHT22;55898;52.196;4.420;2022-07-22T05:16:04;19.12;69.33
68865;DHT22;55898;52.196;4.420;2022-07-22T05:18:30;19.15;68.65
68865;DHT22;55898;52.196;4.420;2022-07-22T05:20:56;19.15;68.41
68865;DHT22;55898;52.196;4.420;2022-07-22T05:23:21;19.14;67.21
68865;DHT22;55898;52.196;4.420;2022-07-22T05:25:46;19.12;67.82
68865;DHT22;55898;52.196;4.420;2022-07-22T05:28:12;19.18;68.70
68865;DHT22;55898;52.196;4.420;2022-07-22T05:30:37;19.14;67.97
68865;DHT22;55898;52.196;4.420;2022-07-22T05:33:03;19.16;68.07
68865;DHT22;55898;52.196;4.420;2022-07-22T05:35:29;19.20;68.52
68865;DHT22;55898;52.196;4.420;2022-07-22T05:37:54;19.26;69.24
68865;DHT22;55898;52.196;4.420;2022-07-22T05:40:20;19.23;69.01
68865;DHT22;55898;52.196;4.420;2022-07-22T05:42:45;19.26;68.62
68865;DHT22;55898;52.196;4.420;2022-07-22T05:45:11;19.33;68.99
68865;DHT22;55898;52.196;4.420;2022-07-22T05:47:36;19.35;67.67
68865;DHT22;55898;52.196;4.420;2022-07-22T05:50:02;19.36;65.39
68865;DHT22;55898;52.196;4.420;2022-07-22T05:52:28;19.43;67.14
68865;DHT22;55898;52.196;4.420;2022-07-22T05:54:53;19.50;66.13
68865;DHT22;55898;52.196;4.420;2022-07-22T05:57:19;19.56;65.88
68865;DHT22;55898;52.196;4.420;2022-07-22T05:59:44;19.56;64.00
68865;DHT22;55898;52.196;4.420;2022-07-22T06:02:09;19.57;63.04
68865;DHT22;55898;52.196;4.420;2022-07-22T06:04:35;19.57;62.69
68865;DHT22;55898;52.196;4.420;2022-07-22T06:07:01;19.56;62.86
68865;DHT22;55898;52.196;4.420;2022-07-22T06:09:26;19.57;62.17
68865;DHT22;55898;52.196;4.420;2022-07-22T06:11:52;19.56;62.23
68865;DHT22;55898;52.196;4.420;2022-07-22T06:14:17;19.59;62.06
68865;DHT22;55898;52.196;4.420;2022-07-22T06:16:43;19.66;62.58
68865;DHT22;55898;52.196;4.420;2022-07-22T06:19:08;19.69;62.19
68865;DHT22;55898;52.196;4.420;2022-07-22T06:21:34;19.66;62.15
68865;DHT22;55898;52.196;4.420;2022-07-22T06:23:59;19.71;63.15
68865;DHT22;55898;52.196;4.420;2022-07-22T06:26:25;19.75;63.78
68865;DHT22;55898;52.196;4.420;2022-07-22T06:28:50;19.74;64.34
68865;DHT22;55898;52.196;4.420;2022-07-22T06:31:16;19.71;64.61
68865;DHT22;55898;52.196;4.420;2022-07-22T06:33:42;19.75;64.67
68865;DHT22;55898;52.196;4.420;2022-07-22T06:36:08;19.64;64.52
68865;DHT22;55898;52.196;4.420;2022-07-22T06:38:33;19.59;64.83
68865;DHT22;55898;52.196;4.420;2022-07-22T06:40:59;19.56;65.33
68865;DHT22;55898;52.196;4.420;2022-07-22T06:43:26;19.60;65.45
68865;DHT22;55898;52.196;4.420;2022-07-22T06:45:53;19.63;64.77
68865;DHT22;55898;52.196;4.420;2022-07-22T06:48:18;19.67;63.87
68865;DHT22;55898;52.196;4.420;2022-07-22T06:50:44;19.67;63.89
68865;DHT22;55898;52.196;4.420;2022-07-22T06:53:09;19.73;64.02
68865;DHT22;55898;52.196;4.420;2022-07-22T06:55:35;19.73;63.24
68865;DHT22;55898;52.196;4.420;2022-07-22T06:58:00;19.75;63.86
68865;DHT22;55898;52.196;4.420;2022-07-22T07:00:26;19.84;64.07
68865;DHT22;55898;52.196;4.420;2022-07-22T07:02:51;19.88;63.50
68865;DHT22;55898;52.196;4.420;2022-07-22T07:05:17;19.93;63.17
68865;DHT22;55898;52.196;4.420;2022-07-22T07:07:42;19.98;62.08
68865;DHT22;55898;52.196;4.420;2022-07-22T07:10:08;20.04;62.32
68865;DHT22;55898;52.196;4.420;2022-07-22T07:12:37;20.08;61.93
68865;DHT22;55898;52.196;4.420;2022-07-22T07:15:03;20.11;62.21
68865;DHT22;55898;52.196;4.420;2022-07-22T07:17:28;20.14;61.74
68865;DHT22;55898;52.196;4.420;2022-07-22T07:19:54;20.15;61.79
68865;DHT22;55898;52.196;4.420;2022-07-22T07:22:19;20.20;62.36
68865;DHT22;55898;52.196;4.420;2022-07-22T07:24:45;20.24;62.66
68865;DHT22;55898;52.196;4.420;2022-07-22T07:27:10;20.28;62.08
68865;DHT22;55898;52.196;4.420;2022-07-22T07:29:35;20.35;61.26
68865;DHT22;55898;52.196;4.420;2022-07-22T07:32:01;20.46;62.38
68865;DHT22;55898;52.196;4.420;2022-07-22T07:34:26;20.52;61.18
68865;DHT22;55898;52.196;4.420;2022-07-22T07:36:52;20.51;60.43
68865;DHT22;55898;52.196;4.420;2022-07-22T07:39:18;20.56;60.59
68865;DHT22;55898;52.196;4.420;2022-07-22T07:41:43;20.56;60.06
68865;DHT22;55898;52.196;4.420;2022-07-22T07:44:09;20.56;60.71
68865;DHT22;55898;52.196;4.420;2022-07-22T07:46:34;20.59;59.99
68865;DHT22;55898;52.196;4.420;2022-07-22T07:49:00;20.63;61.38
68865;DHT22;55898;52.196;4.420;2022-07-22T07:51:25;20.59;58.18
68865;DHT22;55898;52.196;4.420;2022-07-22T07:53:51;20.68;59.70
68865;DHT22;55898;52.196;4.420;2022-07-22T07:56:16;20.79;60.39
68865;DHT22;55898;52.196;4.420;2022-07-22T07:58:42;20.83;61.13
68865;DHT22;55898;52.196;4.420;2022-07-22T08:01:08;20.82;58.98
68865;DHT22;55898;52.196;4.420;2022-07-22T08:03:33;20.86;59.28
68865;DHT22;55898;52.196;4.420;2022-07-22T08:05:59;20.86;57.73
68865;DHT22;55898;52.196;4.420;2022-07-22T08:08:25;20.93;59.18
68865;DHT22;55898;52.196;4.420;2022-07-22T08:10:51;20.93;58.94
68865;DHT22;55898;52.196;4.420;2022-07-22T08:13:17;20.97;59.18
68865;DHT22;55898;52.196;4.420;2022-07-22T08:15:42;21.08;58.48
68865;DHT22;55898;52.196;4.420;2022-07-22T08:18:08;21.10;60.49
68865;DHT22;55898;52.196;4.420;2022-07-22T08:20:33;21.12;59.07
68865;DHT22;55898;52.196;4.420;2022-07-22T08:22:59;21.17;57.19
68865;DHT22;55898;52.196;4.420;2022-07-22T08:25:25;21.23;57.93
68865;DHT22;55898;52.196;4.420;2022-07-22T08:27:51;21.15;57.15
68865;DHT22;55898;52.196;4.420;2022-07-22T08:30:18;21.10;56.08
68865;DHT22;55898;52.196;4.420;2022-07-22T08:32:44;21.11;57.83
68865;DHT22;55898;52.196;4.420;2022-07-22T08:35:10;21.08;56.43
68865;DHT22;55898;52.196;4.420;2022-07-22T08:37:36;21.11;57.26
68865;DHT22;55898;52.196;4.420;2022-07-22T08:40:03;21.12;58.24
68865;DHT22;55898;52.196;4.420;2022-07-22T08:42:30;21.20;58.23
68865;DHT22;55898;52.196;4.420;2022-07-22T08:44:56;21.28;57.23
68865;DHT22;55898;52.196;4.420;2022-07-22T08:47:23;21.17;55.47
68865;DHT22;55898;52.196;4.420;2022-07-22T08:49:49;21.23;56.78
68865;DHT22;55898;52.196;4.420;2022-07-22T08:52:15;21.28;56.88
68865;DHT22;55898;52.196;4.420;2022-07-22T08:54:41;21.30;56.31
68865;DHT22;55898;52.196;4.420;2022-07-22T08:57:06;21.26;54.45
68865;DHT22;55898;52.196;4.420;2022-07-22T08:59:32;21.30;55.99
68865;DHT22;55898;52.196;4.420;2022-07-22T09:02:06;21.41;56.68
68865;DHT22;55898;52.196;4.420;2022-07-22T09:04:32;21.54;55.44
68865;DHT22;55898;52.196;4.420;2022-07-22T09:07:23;21.58;55.98
68865;DHT22;55898;52.196;4.420;2022-07-22T09:09:50;21.63;54.55
68865;DHT22;55898;52.196;4.420;2022-07-22T09:12:15;21.59;56.12
68865;DHT22;55898;52.196;4.420;2022-07-22T09:14:48;21.54;55.79
68865;DHT22;55898;52.196;4.420;2022-07-22T09:17:32;21.41;56.26
68865;DHT22;55898;52.196;4.420;2022-07-22T09:20:03;21.38;55.29
68865;DHT22;55898;52.196;4.420;2022-07-22T09:27:48;21.49;54.44
68865;DHT22;55898;52.196;4.420;2022-07-22T09:30:17;21.57;55.93
68865;DHT22;55898;52.196;4.420;2022-07-22T09:32:43;21.59;54.03
68865;DHT22;55898;52.196;4.420;2022-07-22T09:35:10;21.63;53.90
68865;DHT22;55898;52.196;4.420;2022-07-22T09:40:40;21.72;54.72
68865;DHT22;55898;52.196;4.420;2022-07-22T09:43:12;21.69;53.37
68865;DHT22;55898;52.196;4.420;2022-07-22T09:45:47;21.65;53.70
68865;DHT22;55898;52.196;4.420;2022-07-22T09:48:15;21.71;54.49
68865;DHT22;55898;52.196;4.420;2022-07-22T09:50:41;21.92;55.44
68865;DHT22;55898;52.196;4.420;2022-07-22T09:53:07;21.99;53.75
68865;DHT22;55898;52.196;4.420;2022-07-22T09:55:32;22.03;51.41
68865;DHT22;55898;52.196;4.420;2022-07-22T09:57:59;22.05;53.04
68865;DHT22;55898;52.196;4.420;2022-07-22T10:00:27;22.13;51.04
68865;DHT22;55898;52.196;4.420;2022-07-22T10:02:53;22.21;52.60
68865;DHT22;55898;52.196;4.420;2022-07-22T10:05:25;22.30;52.11
68865;DHT22;55898;52.196;4.420;2022-07-22T10:07:52;22.20;51.20
68865;DHT22;55898;52.196;4.420;2022-07-22T10:10:24;22.29;51.61
68865;DHT22;55898;52.196;4.420;2022-07-22T10:12:51;22.47;51.58
68865;DHT22;55898;52.196;4.420;2022-07-22T10:15:18;22.44;48.72
68865;DHT22;55898;52.196;4.420;2022-07-22T10:17:46;22.54;50.30
68865;DHT22;55898;52.196;4.420;2022-07-22T10:20:20;22.54;51.22
68865;DHT22;55898;52.196;4.420;2022-07-22T10:23:06;22.75;50.94
68865;DHT22;55898;52.196;4.420;2022-07-22T10:25:50;22.72;50.21
68865;DHT22;55898;52.196;4.420;2022-07-22T10:28:25;22.72;50.43
68865;DHT22;55898;52.196;4.420;2022-07-22T10:30:52;22.78;48.93
68865;DHT22;55898;52.196;4.420;2022-07-22T10:33:20;22.88;50.68
68865;DHT22;55898;52.196;4.420;2022-07-22T10:35:56;22.92;49.83
68865;DHT22;55898;52.196;4.420;2022-07-22T10:38:23;23.02;50.37
68865;DHT22;55898;52.196;4.420;2022-07-22T10:43:27;22.85;49.26
68865;DHT22;55898;52.196;4.420;2022-07-22T10:45:58;22.68;50.77
68865;DHT22;55898;52.196;4.420;2022-07-22T10:51:16;22.78;50.18
68865;DHT22;55898;52.196;4.420;2022-07-22T10:53:53;22.91;50.89
68865;DHT22;55898;52.196;4.420;2022-07-22T11:01:31;23.15;49.98
68865;DHT22;55898;52.196;4.420;2022-07-22T11:04:22;23.01;49.75
68865;DHT22;55898;52.196;4.420;2022-07-22T11:06:50;22.95;51.10
68865;DHT22;55898;52.196;4.420;2022-07-22T11:09:18;23.05;50.39
68865;DHT22;55898;52.196;4.420;2022-07-22T11:11:44;23.11;50.60
68865;DHT22;55898;52.196;4.420;2022-07-22T11:14:17;23.16;49.10
68865;DHT22;55898;52.196;4.420;2022-07-22T11:16:45;23.16;50.20
68865;DHT22;55898;52.196;4.420;2022-07-22T11:19:11;23.08;49.34
68865;DHT22;55898;52.196;4.420;2022-07-22T11:21:37;23.15;48.10
68865;DHT22;55898;52.196;4.420;2022-07-22T11:24:05;23.13;49.31
68865;DHT22;55898;52.196;4.420;2022-07-22T11:26:46;23.32;49.18
68865;DHT22;55898;52.196;4.420;2022-07-22T11:29:25;23.56;49.64
68865;DHT22;55898;52.196;4.420;2022-07-22T11:31:52;23.87;49.24
68865;DHT22;55898;52.196;4.420;2022-07-22T11:34:17;23.98;45.98
68865;DHT22;55898;52.196;4.420;2022-07-22T11:36:45;24.10;45.49
68865;DHT22;55898;52.196;4.420;2022-07-22T11:39:13;24.33;47.96
68865;DHT22;55898;52.196;4.420;2022-07-22T11:41:40;24.52;47.30
68865;DHT22;55898;52.196;4.420;2022-07-22T11:44:06;24.26;47.01
68865;DHT22;55898;52.196;4.420;2022-07-22T11:46:41;24.21;47.67
68865;DHT22;55898;52.196;4.420;2022-07-22T11:49:11;24.33;47.37
68865;DHT22;55898;52.196;4.420;2022-07-22T11:51:38;25.33;46.05
68865;DHT22;55898;52.196;4.420;2022-07-22T11:54:05;26.20;44.62
68865;DHT22;55898;52.196;4.420;2022-07-22T11:56:31;27.23;41.04
68865;DHT22;55898;52.196;4.420;2022-07-22T11:58:57;28.08;40.99
68865;DHT22;55898;52.196;4.420;2022-07-22T12:01:28;28.15;40.49
68865;DHT22;55898;52.196;4.420;2022-07-22T12:03:58;27.98;41.42
68865;DHT22;55898;52.196;4.420;2022-07-22T12:06:25;27.71;41.70
68865;DHT22;55898;52.196;4.420;2022-07-22T12:09:02;27.33;42.96
68865;DHT22;55898;52.196;4.420;2022-07-22T12:11:29;27.15;42.37
68865;DHT22;55898;52.196;4.420;2022-07-22T12:13:55;27.19;41.44
68865;DHT22;55898;52.196;4.420;2022-07-22T12:16:30;27.03;42.95
68865;DHT22;55898;52.196;4.420;2022-07-22T12:19:00;27.59;41.65
68865;DHT22;55898;52.196;4.420;2022-07-22T12:21:31;28.34;39.60
68865;DHT22;55898;52.196;4.420;2022-07-22T12:24:06;28.00;40.66
68865;DHT22;55898;52.196;4.420;2022-07-22T12:29:29;27.11;42.14
68865;DHT22;55898;52.196;4.420;2022-07-22T12:31:58;27.03;43.16
68865;DHT22;55898;52.196;4.420;2022-07-22T12:36:56;27.50;42.10
68865;DHT22;55898;52.196;4.420;2022-07-22T12:39:22;27.54;39.85
68865;DHT22;55898;52.196;4.420;2022-07-22T12:41:50;27.47;39.97
68865;DHT22;55898;52.196;4.420;2022-07-22T12:44:23;27.33;40.94
68865;DHT22;55898;52.196;4.420;2022-07-22T12:46:51;27.47;42.07
68865;DHT22;55898;52.196;4.420;2022-07-22T12:49:20;27.18;41.34
68865;DHT22;55898;52.196;4.420;2022-07-22T12:52:05;26.96;42.84
68865;DHT22;55898;52.196;4.420;2022-07-22T12:54:32;26.84;41.79
68865;DHT22;55898;52.196;4.420;2022-07-22T12:56:57;26.74;41.32
68865;DHT22;55898;52.196;4.420;2022-07-22T12:59:23;26.92;42.63
68865;DHT22;55898;52.196;4.420;2022-07-22T13:01:48;27.29;40.99
68865;DHT22;55898;52.196;4.420;2022-07-22T13:04:14;27.86;41.66
68865;DHT22;55898;52.196;4.420;2022-07-22T13:06:40;28.31;39.44
68865;DHT22;55898;52.196;4.420;2022-07-22T13:09:06;28.44;37.60
68865;DHT22;55898;52.196;4.420;2022-07-22T13:11:31;28.63;37.49
68865;DHT22;55898;52.196;4.420;2022-07-22T13:13:56;28.65;37.29
68865;DHT22;55898;52.196;4.420;2022-07-22T13:16:22;28.79;37.17
68865;DHT22;55898;52.196;4.420;2022-07-22T13:18:50;29.04;37.56
68865;DHT22;55898;52.196;4.420;2022-07-22T13:21:16;29.51;37.60
68865;DHT22;55898;52.196;4.420;2022-07-22T13:23:41;29.51;37.09
68865;DHT22;55898;52.196;4.420;2022-07-22T13:26:07;29.28;38.24
68865;DHT22;55898;52.196;4.420;2022-07-22T13:28:33;28.73;36.84
68865;DHT22;55898;52.196;4.420;2022-07-22T13:30:59;28.18;38.08
68865;DHT22;55898;52.196;4.420;2022-07-22T13:33:24;27.63;39.74
68865;DHT22;55898;52.196;4.420;2022-07-22T13:35:49;27.56;40.69
68865;DHT22;55898;52.196;4.420;2022-07-22T13:38:16;27.57;40.71
68865;DHT22;55898;52.196;4.420;2022-07-22T13:40:43;27.47;40.64
68865;DHT22;55898;52.196;4.420;2022-07-22T13:43:16;27.70;40.90
68865;DHT22;55898;52.196;4.420;2022-07-22T13:45:42;28.02;39.85
68865;DHT22;55898;52.196;4.420;2022-07-22T13:48:08;28.21;39.22
68865;DHT22;55898;52.196;4.420;2022-07-22T13:50:33;28.36;38.14
68865;DHT22;55898;52.196;4.420;2022-07-22T13:52:58;28.93;37.74
68865;DHT22;55898;52.196;4.420;2022-07-22T13:55:25;29.24;37.49
68865;DHT22;55898;52.196;4.420;2022-07-22T13:57:51;29.23;37.52
68865;DHT22;55898;52.196;4.420;2022-07-22T14:00:17;28.93;38.57
68865;DHT22;55898;52.196;4.420;2022-07-22T14:02:44;28.86;38.93
68865;DHT22;55898;52.196;4.420;2022-07-22T14:05:10;28.76;39.87
68865;DHT22;55898;52.196;4.420;2022-07-22T14:07:36;28.69;39.24
68865;DHT22;55898;52.196;4.420;2022-07-22T14:10:02;28.48;39.08
68865;DHT22;55898;52.196;4.420;2022-07-22T14:12:28;28.24;40.31
68865;DHT22;55898;52.196;4.420;2022-07-22T14:14:53;27.97;40.06
68865;DHT22;55898;52.196;4.420;2022-07-22T14:17:19;27.56;41.30
68865;DHT22;55898;52.196;4.420;2022-07-22T14:19:44;27.29;42.17
68865;DHT22;55898;52.196;4.420;2022-07-22T14:22:10;27.26;42.26
68865;DHT22;55898;52.196;4.420;2022-07-22T14:24:35;27.21;42.54
68865;DHT22;55898;52.196;4.420;2022-07-22T14:27:01;27.13;42.37
68865;DHT22;55898;52.196;4.420;2022-07-22T14:29:26;27.18;42.15
68865;DHT22;55898;52.196;4.420;2022-07-22T14:31:52;26.94;42.95
68865;DHT22;55898;52.196;4.420;2022-07-22T14:34:18;26.85;43.75
68865;DHT22;55898;52.196;4.420;2022-07-22T14:36:43;26.82;42.23
68865;DHT22;55898;52.196;4.420;2022-07-22T14:39:09;26.81;42.47
68865;DHT22;55898;52.196;4.420;2022-07-22T14:41:35;26.67;41.90
68865;DHT22;55898;52.196;4.420;2022-07-22T14:44:00;26.55;42.71
68865;DHT22;55898;52.196;4.420;2022-07-22T14:46:26;26.54;42.78
68865;DHT22;55898;52.196;4.420;2022-07-22T14:48:51;26.58;43.09
68865;DHT22;55898;52.196;4.420;2022-07-22T14:51:21;26.85;43.51
68865;DHT22;55898;52.196;4.420;2022-07-22T14:53:47;27.11;40.77
68865;DHT22;55898;52.196;4.420;2022-07-22T14:56:13;27.35;40.82
68865;DHT22;55898;52.196;4.420;2022-07-22T14:58:38;27.61;41.05
68865;DHT22;55898;52.196;4.420;2022-07-22T15:01:04;27.71;40.58
68865;DHT22;55898;52.196;4.420;2022-07-22T15:03:29;27.83;41.73
68865;DHT22;55898;52.196;4.420;2022-07-22T15:05:55;27.84;40.49
68865;DHT22;55898;52.196;4.420;2022-07-22T15:08:21;27.83;40.87
68865;DHT22;55898;52.196;4.420;2022-07-22T15:10:46;27.74;41.04
68865;DHT22;55898;52.196;4.420;2022-07-22T15:13:12;27.40;40.32
68865;DHT22;55898;52.196;4.420;2022-07-22T15:15:37;27.15;41.15
68865;DHT22;55898;52.196;4.420;2022-07-22T15:18:03;27.13;41.85
68865;DHT22;55898;52.196;4.420;2022-07-22T15:20:29;27.16;41.61
68865;DHT22;55898;52.196;4.420;2022-07-22T15:22:54;27.26;40.87
68865;DHT22;55898;52.196;4.420;2022-07-22T15:25:20;27.02;41.14
68865;DHT22;55898;52.196;4.420;2022-07-22T15:27:50;26.91;41.07
68865;DHT22;55898;52.196;4.420;2022-07-22T15:30:17;26.70;42.49
68865;DHT22;55898;52.196;4.420;2022-07-22T15:32:43;26.54;42.63
68865;DHT22;55898;52.196;4.420;2022-07-22T15:35:08;26.34;43.17
68865;DHT22;55898;52.196;4.420;2022-07-22T15:37:34;26.20;43.11
68865;DHT22;55898;52.196;4.420;2022-07-22T15:40:00;25.93;42.83
68865;DHT22;55898;52.196;4.420;2022-07-22T15:42:26;25.71;42.39
68865;DHT22;55898;52.196;4.420;2022-07-22T15:44:52;25.49;44.01
68865;DHT22;55898;52.196;4.420;2022-07-22T15:47:18;25.34;43.38
68865;DHT22;55898;52.196;4.420;2022-07-22T15:49:43;25.18;44.65
68865;DHT22;55898;52.196;4.420;2022-07-22T15:52:09;25.11;46.20